createdAt,value
2019-04-29T00:02:21.252Z,2.03
2019-04-29T00:04:48.204Z,2.20
2019-04-29T00:07:15.152Z,2.10
2019-04-29T00:09:42.075Z,2.50
2019-04-29T00:12:08.995Z,2.67
2019-04-29T00:14:35.969Z,1.70
2019-04-29T00:17:11.936Z,2.73
2019-04-29T00:19:46.776Z,1.90
2019-04-29T00:22:13.716Z,2.03
2019-04-29T00:24:40.651Z,2.07
2019-04-29T00:27:07.637Z,5.17
2019-04-29T00:29:34.593Z,2.07
2019-04-29T00:32:01.549Z,5.57
2019-04-29T00:34:28.487Z,1.90
2019-04-29T00:37:00.928Z,2.00
2019-04-29T00:39:44.576Z,2.43
2019-04-29T00:42:22.895Z,2.10
2019-04-29T00:44:49.812Z,2.87
2019-04-29T00:47:16.768Z,5.40
2019-04-29T00:49:43.680Z,2.20
2019-04-29T00:52:10.647Z,4.07
2019-04-29T00:54:42.198Z,2.13
2019-04-29T00:57:09.064Z,2.33
2019-04-29T00:59:35.993Z,3.37
2019-04-29T01:02:03.176Z,1.90
2019-04-29T01:04:31.596Z,2.83
2019-04-29T01:06:58.564Z,2.03
2019-04-29T01:09:25.500Z,1.80
2019-04-29T01:11:52.435Z,2.83
2019-04-29T01:14:19.399Z,2.67
2019-04-29T01:16:46.324Z,3.00
2019-04-29T01:19:13.337Z,2.30
2019-04-29T01:21:40.273Z,3.23
2019-04-29T01:24:07.200Z,2.20
2019-04-29T01:26:47.039Z,1.87
2019-04-29T01:29:14.581Z,2.13
2019-04-29T01:31:41.495Z,2.20
2019-04-29T01:34:15.702Z,2.80
2019-04-29T01:36:44.299Z,2.37
2019-04-29T01:39:11.380Z,2.80
2019-04-29T01:41:43.593Z,2.37
2019-04-29T01:44:10.608Z,2.17
2019-04-29T01:46:37.546Z,2.20
2019-04-29T01:49:04.478Z,2.60
2019-04-29T01:51:31.416Z,2.10
2019-04-29T01:53:58.328Z,2.60
2019-04-29T01:56:25.263Z,2.20
2019-04-29T01:58:52.415Z,2.27
2019-04-29T02:01:19.344Z,2.57
2019-04-29T02:03:46.344Z,2.60
2019-04-29T02:06:14.530Z,3.80
2019-04-29T02:08:41.452Z,2.30
2019-04-29T02:11:08.389Z,2.93
2019-04-29T02:13:35.307Z,2.60
2019-04-29T02:16:02.227Z,2.53
2019-04-29T02:18:29.165Z,2.50
2019-04-29T02:20:56.083Z,3.10
2019-04-29T02:23:28.277Z,3.17
2019-04-29T02:25:55.230Z,2.50
2019-04-29T02:28:22.143Z,2.63
2019-04-29T02:30:49.117Z,3.17
2019-04-29T02:33:16.066Z,2.40
2019-04-29T02:35:43.011Z,2.37
2019-04-29T02:38:13.646Z,5.07
2019-04-29T02:40:46.676Z,2.97
2019-04-29T02:43:17.007Z,2.90
2019-04-29T02:45:43.953Z,3.40
2019-04-29T02:48:10.936Z,3.63
2019-04-29T02:50:37.886Z,2.77
2019-04-29T02:53:04.825Z,3.00
2019-04-29T02:55:35.606Z,2.87
2019-04-29T02:58:05.967Z,2.80
2019-04-29T03:00:52.448Z,3.57
2019-04-29T03:03:24.076Z,3.37
2019-04-29T03:05:54.830Z,2.90
2019-04-29T03:08:24.599Z,4.57
2019-04-29T03:10:51.533Z,2.67
2019-04-29T03:13:18.501Z,5.80
2019-04-29T03:15:45.402Z,3.47
2019-04-29T03:18:12.321Z,2.93
2019-04-29T03:20:48.005Z,4.57
2019-04-29T03:23:17.510Z,4.47
2019-04-29T03:25:44.420Z,3.40
2019-04-29T03:28:11.377Z,4.00
2019-04-29T03:30:38.334Z,4.80
2019-04-29T03:33:05.226Z,3.50
2019-04-29T03:35:32.193Z,3.67
2019-04-29T03:37:59.128Z,3.20
2019-04-29T03:40:26.054Z,3.00
2019-04-29T03:42:53.010Z,4.40
2019-04-29T03:45:19.920Z,3.07
2019-04-29T03:47:46.840Z,3.27
2019-04-29T03:50:13.802Z,3.20
2019-04-29T03:52:40.760Z,3.37
2019-04-29T03:55:07.716Z,3.67
2019-04-29T03:57:35.188Z,5.83
2019-04-29T04:00:02.602Z,3.47
2019-04-29T04:02:34.589Z,4.57
2019-04-29T04:05:14.573Z,3.30
2019-04-29T04:07:45.472Z,3.63
2019-04-29T04:10:13.593Z,4.70
2019-04-29T04:12:40.520Z,3.60
2019-04-29T04:15:07.969Z,4.23
2019-04-29T04:17:38.902Z,3.40
2019-04-29T04:20:05.850Z,3.97
2019-04-29T04:22:45.503Z,4.13
2019-04-29T04:25:12.440Z,3.77
2019-04-29T04:27:39.358Z,3.87
2019-04-29T04:30:06.289Z,5.30
2019-04-29T04:32:33.237Z,3.60
2019-04-29T04:35:00.189Z,6.00
2019-04-29T04:37:27.125Z,5.83
2019-04-29T04:39:54.316Z,4.03
2019-04-29T04:42:21.337Z,3.60
2019-04-29T04:44:48.679Z,5.23
2019-04-29T04:47:16.198Z,4.50
2019-04-29T04:49:43.148Z,4.37
2019-04-29T04:52:10.514Z,3.93
2019-04-29T04:54:37.509Z,7.73
2019-04-29T04:57:04.406Z,6.73
2019-04-29T04:59:31.337Z,27.40
2019-04-29T05:01:58.266Z,11.23
2019-04-29T05:04:25.191Z,6.73
2019-04-29T05:06:52.128Z,4.13
2019-04-29T05:09:19.049Z,5.73
2019-04-29T05:11:46.161Z,9.47
2019-04-29T05:14:13.098Z,4.43
2019-04-29T05:16:40.028Z,4.57
2019-04-29T05:19:06.968Z,14.57
2019-04-29T05:21:33.886Z,21.40
2019-04-29T05:24:00.819Z,8.83
2019-04-29T05:26:27.738Z,15.77
2019-04-29T05:28:54.652Z,20.40
2019-04-29T05:31:21.592Z,4.43
2019-04-29T05:33:48.520Z,5.43
2019-04-29T05:36:21.249Z,4.57
2019-04-29T05:38:52.490Z,4.50
2019-04-29T05:41:20.812Z,5.17
2019-04-29T05:43:58.540Z,5.37
2019-04-29T05:46:34.128Z,5.27
2019-04-29T05:49:02.522Z,4.70
2019-04-29T05:51:36.145Z,11.17
2019-04-29T05:54:03.516Z,7.73
2019-04-29T05:56:30.432Z,5.33
2019-04-29T05:58:57.382Z,7.93
2019-04-29T06:01:25.140Z,5.37
2019-04-29T06:03:52.090Z,4.70
2019-04-29T06:06:18.988Z,4.23
2019-04-29T06:08:45.907Z,7.33
2019-04-29T06:11:12.818Z,8.67
2019-04-29T06:13:40.276Z,5.10
2019-04-29T06:16:07.239Z,4.27
2019-04-29T06:18:34.163Z,9.97
2019-04-29T06:21:08.998Z,10.80
2019-04-29T06:23:28.091Z,8.67
2019-04-29T06:25:54.997Z,6.40
2019-04-29T06:28:26.484Z,12.97
2019-04-29T06:30:50.249Z,6.13
2019-04-29T06:33:15.834Z,5.63
2019-04-29T06:35:43.330Z,8.80
2019-04-29T06:38:09.709Z,6.13
2019-04-29T06:40:36.944Z,7.43
2019-04-29T06:43:03.796Z,7.00
2019-04-29T06:45:30.759Z,6.73
2019-04-29T06:47:57.704Z,8.83
2019-04-29T06:50:24.638Z,5.07
2019-04-29T06:52:51.561Z,6.60
2019-04-29T06:55:18.507Z,6.67
2019-04-29T06:57:45.448Z,9.33
2019-04-29T07:00:12.484Z,7.73
2019-04-29T07:02:39.423Z,10.50
2019-04-29T07:05:06.347Z,11.37
2019-04-29T07:07:33.299Z,8.73
2019-04-29T07:10:00.229Z,8.33
2019-04-29T07:12:27.145Z,8.50
2019-04-29T07:14:55.297Z,5.93
2019-04-29T07:17:22.263Z,8.77
2019-04-29T07:19:49.180Z,7.90
2019-04-29T07:22:16.148Z,10.33
2019-04-29T07:24:43.089Z,5.63
2019-04-29T07:27:10.030Z,6.37
2019-04-29T07:29:38.178Z,9.27
2019-04-29T07:32:04.780Z,7.87
2019-04-29T07:34:33.683Z,10.27
2019-04-29T07:36:59.390Z,6.57
2019-04-29T07:39:26.812Z,5.93
2019-04-29T07:41:53.679Z,4.17
2019-04-29T07:44:19.960Z,5.57
2019-04-29T07:46:56.859Z,3.90
2019-04-29T07:49:17.709Z,4.13
2019-04-29T07:51:43.713Z,5.50
2019-04-29T07:54:11.139Z,3.80
2019-04-29T07:56:37.863Z,3.93
2019-04-29T07:59:04.690Z,4.63
2019-04-29T08:01:31.451Z,3.93
2019-04-29T08:03:58.424Z,8.63
2019-04-29T08:06:25.376Z,3.17
2019-04-29T08:08:55.509Z,3.23
2019-04-29T08:11:19.209Z,3.40
2019-04-29T08:13:46.484Z,4.00
2019-04-29T08:16:17.238Z,4.40
2019-04-29T08:18:40.833Z,3.63
2019-04-29T08:21:10.215Z,3.93
2019-04-29T08:23:41.176Z,4.00
2019-04-29T08:26:02.612Z,3.87
2019-04-29T08:28:28.612Z,4.17
2019-04-29T08:30:55.545Z,5.47
2019-04-29T08:33:22.451Z,5.17
2019-04-29T08:35:49.398Z,5.17
2019-04-29T08:38:16.325Z,4.00
2019-04-29T08:40:45.239Z,7.27
2019-04-29T08:43:22.397Z,4.07
2019-04-29T08:46:02.150Z,3.87
2019-04-29T08:48:29.075Z,3.80
2019-04-29T08:50:56.253Z,4.10
2019-04-29T08:53:23.184Z,3.77
2019-04-29T08:55:50.099Z,4.00
2019-04-29T08:58:17.025Z,3.80
2019-04-29T09:00:43.948Z,6.20
2019-04-29T09:03:10.887Z,3.53
2019-04-29T09:05:41.691Z,3.90
2019-04-29T09:08:04.747Z,3.70
2019-04-29T09:10:33.042Z,4.10
2019-04-29T09:12:58.601Z,3.90
2019-04-29T09:15:25.516Z,4.27
2019-04-29T09:17:52.904Z,5.50
2019-04-29T09:20:19.825Z,5.30
2019-04-29T09:22:50.712Z,4.13
2019-04-29T09:25:37.276Z,5.83
2019-04-29T09:28:07.413Z,4.23
2019-04-29T09:30:34.488Z,3.90
2019-04-29T09:33:01.473Z,5.43
2019-04-29T09:35:28.906Z,6.50
2019-04-29T09:37:58.383Z,7.83
2019-04-29T09:40:22.356Z,5.53
2019-04-29T09:42:59.277Z,3.53
2019-04-29T09:45:31.037Z,3.50
2019-04-29T09:47:57.976Z,6.47
2019-04-29T09:50:24.902Z,5.93
2019-04-29T09:52:51.983Z,4.43
2019-04-29T09:55:18.914Z,4.20
2019-04-29T09:57:45.832Z,9.13
2019-04-29T10:00:19.893Z,5.03
2019-04-29T10:02:55.727Z,6.43
2019-04-29T10:05:45.319Z,5.40
2019-04-29T10:08:12.257Z,5.93
2019-04-29T10:10:39.180Z,3.87
2019-04-29T10:13:06.116Z,3.80
2019-04-29T10:15:38.951Z,6.60
2019-04-29T10:18:10.961Z,6.30
2019-04-29T10:20:44.567Z,5.63
2019-04-29T10:23:11.481Z,4.93
2019-04-29T10:25:38.426Z,5.87
2019-04-29T10:28:05.353Z,3.57
2019-04-29T10:30:32.491Z,5.10
2019-04-29T10:32:59.245Z,7.10
2019-04-29T10:35:26.161Z,5.57
2019-04-29T10:37:53.095Z,3.83
2019-04-29T10:40:27.675Z,9.70
2019-04-29T10:43:11.443Z,5.70
2019-04-29T10:45:47.585Z,4.37
2019-04-29T10:48:21.172Z,6.37
2019-04-29T10:50:52.146Z,5.17
2019-04-29T10:53:17.144Z,5.13
2019-04-29T10:55:42.133Z,5.33
2019-04-29T10:58:09.064Z,3.97
2019-04-29T11:01:13.145Z,5.50
2019-04-29T11:03:40.087Z,5.63
2019-04-29T11:06:07.122Z,3.07
2019-04-29T11:08:43.264Z,6.13
2019-04-29T11:11:22.165Z,4.23
2019-04-29T11:13:45.961Z,4.10
2019-04-29T11:16:04.087Z,5.87
2019-04-29T11:18:32.363Z,4.83
2019-04-29T11:20:59.275Z,4.43
2019-04-29T11:23:35.844Z,7.27
2019-04-29T11:26:23.305Z,4.73
2019-04-29T11:28:51.226Z,5.00
2019-04-29T11:31:19.282Z,5.47
2019-04-29T11:33:49.775Z,6.30
2019-04-29T11:36:18.205Z,6.10
2019-04-29T11:38:45.135Z,4.93
2019-04-29T11:41:19.261Z,4.07
2019-04-29T11:43:39.011Z,6.10
2019-04-29T11:46:09.962Z,11.47
2019-04-29T11:48:32.996Z,4.33
2019-04-29T11:51:05.008Z,5.53
2019-04-29T11:53:31.948Z,3.97
2019-04-29T11:55:58.923Z,3.80
2019-04-29T11:58:34.115Z,4.53
2019-04-29T12:01:08.463Z,6.10
2019-04-29T12:03:37.482Z,7.73
2019-04-29T12:06:03.955Z,6.53
2019-04-29T12:08:30.876Z,4.83
2019-04-29T12:11:06.563Z,5.60
2019-04-29T12:13:30.719Z,5.47
2019-04-29T12:16:04.049Z,9.13
2019-04-29T12:18:38.169Z,3.80
2019-04-29T12:21:09.770Z,10.07
2019-04-29T12:23:36.704Z,6.63
2019-04-29T12:26:05.009Z,5.10
2019-04-29T12:28:30.600Z,6.67
2019-04-29T12:30:59.383Z,4.90
2019-04-29T12:33:32.536Z,3.63
2019-04-29T12:36:03.399Z,4.50
2019-04-29T12:38:49.636Z,3.47
2019-04-29T12:41:47.864Z,5.23
2019-04-29T12:44:34.400Z,3.10
2019-04-29T12:46:54.480Z,3.20
2019-04-29T12:49:21.429Z,4.60
2019-04-29T12:51:48.368Z,4.13
2019-04-29T12:54:15.379Z,4.33
2019-04-29T12:56:43.169Z,3.23
2019-04-29T12:59:09.248Z,3.77
2019-04-29T13:01:59.545Z,6.17
2019-04-29T13:04:40.071Z,4.97
2019-04-29T13:07:16.084Z,4.60
2019-04-29T13:09:43.879Z,5.43
2019-04-29T13:12:19.048Z,6.77
2019-04-29T13:14:41.972Z,4.73
2019-04-29T13:17:18.136Z,7.00
2019-04-29T13:20:01.654Z,3.07
2019-04-29T13:22:18.476Z,4.70
2019-04-29T13:24:45.433Z,4.33
2019-04-29T13:27:16.312Z,3.40
2019-04-29T13:29:39.432Z,6.73
2019-04-29T13:32:06.353Z,5.27
2019-04-29T13:34:36.072Z,3.90
2019-04-29T13:37:07.277Z,6.33
2019-04-29T13:39:39.041Z,4.07
2019-04-29T13:41:58.399Z,6.27
2019-04-29T13:44:23.792Z,6.20
2019-04-29T13:46:59.532Z,4.17
2019-04-29T13:49:32.543Z,6.10
2019-04-29T13:51:59.984Z,5.07
2019-04-29T13:54:26.952Z,6.20
2019-04-29T13:56:56.705Z,5.87
2019-04-29T13:59:27.720Z,4.40
2019-04-29T14:02:04.797Z,6.13
2019-04-29T14:04:32.860Z,4.50
2019-04-29T14:06:59.789Z,3.77
2019-04-29T14:09:26.729Z,4.43
2019-04-29T14:12:01.851Z,5.63
2019-04-29T14:14:22.784Z,5.37
2019-04-29T14:16:48.750Z,5.20
2019-04-29T14:19:18.727Z,6.27
2019-04-29T14:21:43.568Z,6.23
2019-04-29T14:24:08.857Z,3.60
2019-04-29T14:26:36.947Z,6.10
2019-04-29T14:29:03.135Z,7.30
2019-04-29T14:31:30.387Z,4.47
2019-04-29T14:34:01.352Z,3.13
2019-04-29T14:36:27.448Z,6.43
2019-04-29T14:38:54.392Z,5.17
2019-04-29T14:41:21.369Z,6.47
2019-04-29T14:44:00.281Z,4.37
2019-04-29T14:46:43.985Z,4.97
2019-04-29T14:49:15.145Z,6.17
2019-04-29T14:51:42.080Z,6.57
2019-04-29T14:54:09.018Z,4.67
2019-04-29T14:56:35.928Z,5.70
2019-04-29T14:59:07.025Z,7.00
2019-04-29T15:01:34.957Z,5.63
2019-04-29T15:04:17.283Z,6.83
2019-04-29T15:06:30.780Z,5.10
2019-04-29T15:08:57.785Z,5.90
2019-04-29T15:11:31.988Z,5.27
2019-04-29T15:13:56.231Z,5.13
2019-04-29T15:16:27.746Z,6.37
2019-04-29T15:19:02.923Z,5.77
2019-04-29T15:21:34.532Z,6.50
2019-04-29T15:24:01.104Z,4.93
2019-04-29T15:26:29.348Z,6.77
2019-04-29T15:28:56.325Z,4.10
2019-04-29T15:31:23.275Z,3.13
2019-04-29T15:33:50.301Z,6.00
2019-04-29T15:36:17.355Z,5.70
2019-04-29T15:38:47.211Z,11.00
2019-04-29T15:41:11.208Z,5.03
2019-04-29T15:43:47.250Z,4.77
2019-04-29T15:46:06.459Z,5.00
2019-04-29T15:48:32.019Z,4.70
2019-04-29T15:50:58.963Z,5.63
2019-04-29T15:53:25.891Z,4.10
2019-04-29T15:56:06.199Z,4.40
2019-04-29T15:58:22.572Z,3.43
2019-04-29T16:00:46.648Z,6.33
2019-04-29T16:03:17.746Z,3.10
2019-04-29T16:06:10.981Z,3.43
2019-04-29T16:08:22.764Z,4.37
2019-04-29T16:11:00.259Z,5.60
2019-04-29T16:13:27.733Z,3.67
2019-04-29T16:15:54.097Z,2.90
2019-04-29T16:18:21.043Z,4.17
2019-04-29T16:20:53.725Z,3.33
2019-04-29T16:23:14.855Z,4.33
2019-04-29T16:25:46.213Z,3.83
2019-04-29T16:28:09.137Z,2.77
2019-04-29T16:30:36.058Z,3.13
2019-04-29T16:33:13.277Z,3.87
2019-04-29T16:35:34.774Z,6.90
2019-04-29T16:37:56.936Z,4.33
2019-04-29T16:40:24.132Z,4.77
2019-04-29T16:43:11.664Z,4.23
2019-04-29T16:45:51.667Z,4.23
2019-04-29T16:48:11.584Z,3.37
2019-04-29T16:50:38.509Z,6.53
2019-04-29T16:53:05.464Z,5.23
2019-04-29T16:55:35.815Z,5.47
2019-04-29T16:57:59.663Z,6.10
2019-04-29T17:00:27.536Z,5.27
2019-04-29T17:02:54.460Z,4.27
2019-04-29T17:05:21.741Z,3.17
2019-04-29T17:07:48.311Z,5.43
2019-04-29T17:10:21.597Z,3.73
2019-04-29T17:12:49.989Z,4.00
2019-04-29T17:15:24.822Z,4.30
2019-04-29T17:17:43.838Z,3.57
2019-04-29T17:20:10.817Z,3.30
2019-04-29T17:22:43.159Z,5.43
2019-04-29T17:25:04.708Z,5.33
2019-04-29T17:27:45.323Z,4.47
2019-04-29T17:30:38.136Z,4.37
2019-04-29T17:33:09.864Z,3.47
2019-04-29T17:35:37.363Z,5.30
2019-04-29T17:38:04.280Z,5.30
2019-04-29T17:40:31.231Z,6.60
2019-04-29T17:43:08.124Z,4.53
2019-04-29T17:45:40.513Z,6.03
2019-04-29T17:48:18.205Z,3.50
2019-04-29T17:50:51.599Z,5.50
2019-04-29T17:53:25.042Z,4.47
2019-04-29T17:56:01.421Z,3.70
2019-04-29T17:58:51.380Z,4.63
2019-04-29T18:01:26.615Z,13.10
2019-04-29T18:04:11.721Z,3.90
2019-04-29T18:06:41.359Z,3.70
2019-04-29T18:09:27.900Z,4.97
2019-04-29T18:11:57.512Z,4.37
2019-04-29T18:14:22.370Z,5.13
2019-04-29T18:16:49.313Z,5.10
2019-04-29T18:19:20.631Z,6.67
2019-04-29T18:22:14.741Z,10.27
2019-04-29T18:24:46.556Z,5.30
2019-04-29T18:27:15.947Z,4.80
2019-04-29T18:29:43.101Z,5.67
2019-04-29T18:32:11.321Z,7.03
2019-04-29T18:34:38.241Z,4.63
2019-04-29T18:37:06.467Z,6.47
2019-04-29T18:39:32.107Z,6.40
2019-04-29T18:42:03.270Z,4.60
2019-04-29T18:44:25.961Z,5.90
2019-04-29T18:46:55.431Z,6.00
2019-04-29T18:49:19.898Z,4.70
2019-04-29T18:51:46.806Z,5.07
2019-04-29T18:54:13.751Z,5.77
2019-04-29T18:56:40.680Z,8.60
2019-04-29T18:59:07.608Z,5.47
2019-04-29T19:01:34.896Z,4.40
2019-04-29T19:04:10.280Z,5.23
2019-04-29T19:06:35.394Z,4.23
2019-04-29T19:09:02.866Z,4.33
2019-04-29T19:11:32.179Z,5.93
2019-04-29T19:13:56.385Z,7.70
2019-04-29T19:16:23.372Z,4.53
2019-04-29T19:18:51.989Z,5.73
2019-04-29T19:21:17.184Z,5.03
2019-04-29T19:23:45.769Z,3.90
2019-04-29T19:26:11.064Z,6.27
2019-04-29T19:28:37.999Z,5.23
2019-04-29T19:31:09.341Z,4.33
2019-04-29T19:33:37.619Z,5.87
2019-04-29T19:35:59.495Z,4.50
2019-04-29T19:38:26.438Z,5.27
2019-04-29T19:40:53.356Z,5.90
2019-04-29T19:43:20.297Z,4.27
2019-04-29T19:45:49.081Z,4.57
2019-04-29T19:48:15.968Z,5.33
2019-04-29T19:50:41.103Z,4.53
2019-04-29T19:53:08.066Z,5.27
2019-04-29T19:55:41.798Z,4.43
2019-04-29T19:58:02.212Z,4.53
2019-04-29T20:00:31.243Z,5.53
2019-04-29T20:02:57.265Z,4.97
2019-04-29T20:05:31.691Z,5.43
2019-04-29T20:07:58.322Z,6.10
2019-04-29T20:10:22.620Z,4.97
2019-04-29T20:12:53.109Z,5.07
2019-04-29T20:15:16.681Z,4.80
2019-04-29T20:18:02.089Z,5.10
2019-04-29T20:20:38.703Z,6.20
2019-04-29T20:23:02.970Z,5.93
2019-04-29T20:25:37.652Z,7.83
2019-04-29T20:28:05.411Z,6.70
2019-04-29T20:30:23.751Z,5.70
2019-04-29T20:32:50.657Z,5.37
2019-04-29T20:35:18.487Z,6.00
2019-04-29T20:37:47.447Z,4.97
2019-04-29T20:40:12.033Z,7.60
2019-04-29T20:42:40.429Z,6.40
2019-04-29T20:45:05.978Z,5.77
2019-04-29T20:47:37.800Z,6.60
2019-04-29T20:49:59.790Z,5.60
2019-04-29T20:52:33.325Z,6.77
2019-04-29T20:55:02.510Z,23.23
2019-04-29T20:57:27.831Z,8.77
2019-04-29T20:59:55.139Z,5.67
2019-04-29T21:02:31.454Z,5.30
2019-04-29T21:04:48.161Z,6.50
2019-04-29T21:07:17.119Z,6.37
2019-04-29T21:09:41.837Z,5.83
2019-04-29T21:12:20.679Z,6.70
2019-04-29T21:14:50.436Z,5.90
2019-04-29T21:17:28.687Z,7.47
2019-04-29T21:19:44.326Z,6.23
2019-04-29T21:22:12.891Z,5.90
2019-04-29T21:24:38.191Z,7.07
2019-04-29T21:27:05.561Z,8.27
2019-04-29T21:29:32.091Z,6.27
2019-04-29T21:32:01.626Z,8.33
2019-04-29T21:34:29.559Z,7.23
2019-04-29T21:37:16.001Z,7.17
2019-04-29T21:39:49.932Z,7.93
2019-04-29T21:42:29.783Z,8.27
2019-04-29T21:44:50.913Z,8.70
2019-04-29T21:47:17.825Z,8.23
2019-04-29T21:49:45.680Z,8.70
2019-04-29T21:52:11.680Z,9.53
2019-04-29T21:54:38.596Z,10.63
2019-04-29T21:57:05.804Z,9.97
2019-04-29T21:59:32.487Z,10.73
2019-04-29T22:01:59.416Z,10.97
2019-04-29T22:04:26.329Z,11.33
2019-04-29T22:06:53.263Z,10.70
2019-04-29T22:09:20.187Z,10.57
2019-04-29T22:11:47.115Z,11.40
2019-04-29T22:14:15.220Z,11.70
2019-04-29T22:16:40.973Z,11.83
2019-04-29T22:19:07.901Z,11.97
2019-04-29T22:21:36.010Z,11.60
2019-04-29T22:24:01.753Z,12.53
2019-04-29T22:26:28.663Z,12.40
2019-04-29T22:29:01.652Z,12.23
2019-04-29T22:31:26.804Z,12.17
2019-04-29T22:33:49.497Z,12.00
2019-04-29T22:36:18.141Z,14.90
2019-04-29T22:38:43.594Z,13.00
2019-04-29T22:41:12.009Z,12.90
2019-04-29T22:43:46.051Z,12.67
2019-04-29T22:46:12.981Z,13.33
2019-04-29T22:48:40.638Z,14.43
2019-04-29T22:51:10.208Z,13.63
2019-04-29T22:53:33.781Z,15.33
2019-04-29T22:56:00.700Z,14.47
2019-04-29T22:58:27.680Z,13.87
2019-04-29T23:00:54.603Z,14.93
2019-04-29T23:03:21.519Z,14.00
2019-04-29T23:05:48.517Z,15.23
2019-04-29T23:08:15.436Z,15.23
2019-04-29T23:10:42.379Z,15.90
2019-04-29T23:13:09.327Z,16.23
2019-04-29T23:15:36.266Z,14.83
2019-04-29T23:18:03.228Z,15.20
2019-04-29T23:20:36.115Z,15.40
2019-04-29T23:23:09.469Z,14.73
2019-04-29T23:25:40.873Z,14.73
2019-04-29T23:28:07.784Z,15.40
2019-04-29T23:30:34.709Z,16.40
2019-04-29T23:33:01.640Z,16.67
2019-04-29T23:35:28.564Z,15.87
2019-04-29T23:37:58.752Z,16.30
2019-04-29T23:40:23.691Z,16.60
2019-04-29T23:42:50.604Z,16.13
2019-04-29T23:45:20.903Z,16.60
2019-04-29T23:47:46.869Z,17.07
2019-04-29T23:50:13.956Z,16.47
2019-04-29T23:52:38.316Z,16.23
2019-04-29T23:55:07.699Z,17.17
2019-04-29T23:57:39.009Z,15.77
